sensor_id;sensor_type;location;lat;lon;timestamp;temperature;humidity
17370;DHT22;8802;52.402;4.920;2023-12-20T00:01:19;11.30;99.90
17370;DHT22;8802;52.402;4.920;2023-12-20T00:03:46;11.30;99.90
17370;DHT22;8802;52.402;4.920;2023-12-20T00:06:13;11.30;99.90
17370;DHT22;8802;52.402;4.920;2023-12-20T00:08:40;11.30;99.90
17370;DHT22;8802;52.402;4.920;2023-12-20T00:11:07;11.30;99.90
17370;DHT22;8802;52.402;4.920;2023-12-20T00:13:35;11.30;99.90
17370;DHT22;8802;52.402;4.920;2023-12-20T00:16:02;11.30;99.90
17370;DHT22;8802;52.402;4.920;2023-12-20T00:18:29;11.30;99.90
17370;DHT22;8802;52.402;4.920;2023-12-20T00:20:56;11.30;99.90
17370;DHT22;8802;52.402;4.920;2023-12-20T00:23:23;11.30;99.90
17370;DHT22;8802;52.402;4.920;2023-12-20T00:25:50;11.20;99.90
17370;DHT22;8802;52.402;4.920;2023-12-20T00:28:17;11.20;99.90
17370;DHT22;8802;52.402;4.920;2023-12-20T00:30:45;11.20;99.90
17370;DHT22;8802;52.402;4.920;2023-12-20T00:33:12;11.20;99.90
17370;DHT22;8802;52.402;4.920;2023-12-20T00:35:39;11.20;99.90
17370;DHT22;8802;52.402;4.920;2023-12-20T00:38:06;11.20;99.90
17370;DHT22;8802;52.402;4.920;2023-12-20T00:40:34;11.20;99.90
17370;DHT22;8802;52.402;4.920;2023-12-20T00:43:01;11.20;99.90
17370;DHT22;8802;52.402;4.920;2023-12-20T00:45:28;11.20;99.90
17370;DHT22;8802;52.402;4.920;2023-12-20T00:47:56;11.20;99.90
17370;DHT22;8802;52.402;4.920;2023-12-20T00:50:24;11.10;99.90
17370;DHT22;8802;52.402;4.920;2023-12-20T00:52:51;11.20;99.90
17370;DHT22;8802;52.402;4.920;2023-12-20T00:55:20;11.20;99.90
17370;DHT22;8802;52.402;4.920;2023-12-20T00:57:47;11.20;99.90
17370;DHT22;8802;52.402;4.920;2023-12-20T01:00:14;11.20;99.90
17370;DHT22;8802;52.402;4.920;2023-12-20T01:02:41;11.20;99.90
17370;DHT22;8802;52.402;4.920;2023-12-20T01:05:09;11.20;99.90
17370;DHT22;8802;52.402;4.920;2023-12-20T01:07:36;11.20;99.90
17370;DHT22;8802;52.402;4.920;2023-12-20T01:10:03;11.20;99.90
17370;DHT22;8802;52.402;4.920;2023-12-20T01:12:30;11.20;99.90
17370;DHT22;8802;52.402;4.920;2023-12-20T01:14:57;11.30;99.90
17370;DHT22;8802;52.402;4.920;2023-12-20T01:17:24;11.20;99.90
17370;DHT22;8802;52.402;4.920;2023-12-20T01:19:51;11.20;99.90
17370;DHT22;8802;52.402;4.920;2023-12-20T01:22:19;11.20;99.90
17370;DHT22;8802;52.402;4.920;2023-12-20T01:24:46;11.20;99.90
17370;DHT22;8802;52.402;4.920;2023-12-20T01:27:13;11.20;99.90
17370;DHT22;8802;52.402;4.920;2023-12-20T01:29:39;11.20;99.90
17370;DHT22;8802;52.402;4.920;2023-12-20T01:32:07;11.20;99.90
17370;DHT22;8802;52.402;4.920;2023-12-20T01:34:34;11.20;99.90
17370;DHT22;8802;52.402;4.920;2023-12-20T01:37:01;11.20;99.90
17370;DHT22;8802;52.402;4.920;2023-12-20T01:39:29;11.20;99.90
17370;DHT22;8802;52.402;4.920;2023-12-20T01:41:56;11.20;99.90
17370;DHT22;8802;52.402;4.920;2023-12-20T01:44:23;11.20;99.90
17370;DHT22;8802;52.402;4.920;2023-12-20T01:46:50;11.20;99.90
17370;DHT22;8802;52.402;4.920;2023-12-20T01:49:17;11.20;99.90
17370;DHT22;8802;52.402;4.920;2023-12-20T01:51:44;11.20;99.90
17370;DHT22;8802;52.402;4.920;2023-12-20T01:54:11;11.20;99.90
17370;DHT22;8802;52.402;4.920;2023-12-20T01:56:40;11.20;99.90
17370;DHT22;8802;52.402;4.920;2023-12-20T01:59:08;11.20;99.90
17370;DHT22;8802;52.402;4.920;2023-12-20T02:01:35;11.20;99.90
17370;DHT22;8802;52.402;4.920;2023-12-20T02:04:02;11.20;99.90
17370;DHT22;8802;52.402;4.920;2023-12-20T02:06:30;11.20;99.90
17370;DHT22;8802;52.402;4.920;2023-12-20T02:08:57;11.20;99.90
17370;DHT22;8802;52.402;4.920;2023-12-20T02:11:25;11.20;99.90
17370;DHT22;8802;52.402;4.920;2023-12-20T02:13:54;11.20;99.90
17370;DHT22;8802;52.402;4.920;2023-12-20T02:16:21;11.20;99.90
17370;DHT22;8802;52.402;4.920;2023-12-20T02:18:48;11.20;99.90
17370;DHT22;8802;52.402;4.920;2023-12-20T02:21:15;11.20;99.90
17370;DHT22;8802;52.402;4.920;2023-12-20T02:23:43;11.20;99.90
17370;DHT22;8802;52.402;4.920;2023-12-20T02:26:10;11.20;99.90
17370;DHT22;8802;52.402;4.920;2023-12-20T02:28:39;11.20;99.90
17370;DHT22;8802;52.402;4.920;2023-12-20T02:31:06;11.20;99.90
17370;DHT22;8802;52.402;4.920;2023-12-20T02:33:33;11.30;99.90
17370;DHT22;8802;52.402;4.920;2023-12-20T02:36:00;11.30;99.90
17370;DHT22;8802;52.402;4.920;2023-12-20T02:38:26;11.30;99.90
17370;DHT22;8802;52.402;4.920;2023-12-20T02:40:55;11.30;99.90
17370;DHT22;8802;52.402;4.920;2023-12-20T02:43:21;11.30;99.90
17370;DHT22;8802;52.402;4.920;2023-12-20T02:45:48;11.30;99.90
17370;DHT22;8802;52.402;4.920;2023-12-20T02:48:15;11.30;99.90
17370;DHT22;8802;52.402;4.920;2023-12-20T02:50:42;11.30;99.90
17370;DHT22;8802;52.402;4.920;2023-12-20T02:53:09;11.30;99.90
17370;DHT22;8802;52.402;4.920;2023-12-20T02:55:35;11.30;99.90
17370;DHT22;8802;52.402;4.920;2023-12-20T02:58:04;11.30;99.90
17370;DHT22;8802;52.402;4.920;2023-12-20T03:00:30;11.30;99.90
17370;DHT22;8802;52.402;4.920;2023-12-20T03:02:57;11.40;99.90
17370;DHT22;8802;52.402;4.920;2023-12-20T03:05:25;11.30;99.90
17370;DHT22;8802;52.402;4.920;2023-12-20T03:07:52;11.30;99.90
17370;DHT22;8802;52.402;4.920;2023-12-20T03:10:19;11.30;99.90
17370;DHT22;8802;52.402;4.920;2023-12-20T03:12:46;11.30;99.90
17370;DHT22;8802;52.402;4.920;2023-12-20T03:15:14;11.30;99.90
17370;DHT22;8802;52.402;4.920;2023-12-20T03:17:41;11.30;99.90
17370;DHT22;8802;52.402;4.920;2023-12-20T03:20:08;11.30;99.90
17370;DHT22;8802;52.402;4.920;2023-12-20T03:22:35;11.30;99.90
17370;DHT22;8802;52.402;4.920;2023-12-20T03:25:02;11.30;99.90
17370;DHT22;8802;52.402;4.920;2023-12-20T03:27:29;11.30;99.90
17370;DHT22;8802;52.402;4.920;2023-12-20T03:29:56;11.20;99.90
17370;DHT22;8802;52.402;4.920;2023-12-20T03:32:24;11.40;99.90
17370;DHT22;8802;52.402;4.920;2023-12-20T03:34:51;11.20;99.90
17370;DHT22;8802;52.402;4.920;2023-12-20T03:37:18;11.30;99.90
17370;DHT22;8802;52.402;4.920;2023-12-20T03:39:45;11.20;99.90
17370;DHT22;8802;52.402;4.920;2023-12-20T03:42:12;11.20;99.90
17370;DHT22;8802;52.402;4.920;2023-12-20T03:44:39;11.20;99.90
17370;DHT22;8802;52.402;4.920;2023-12-20T03:47:07;11.20;99.90
17370;DHT22;8802;52.402;4.920;2023-12-20T03:49:35;11.20;99.90
17370;DHT22;8802;52.402;4.920;2023-12-20T03:52:04;11.20;99.90
17370;DHT22;8802;52.402;4.920;2023-12-20T03:54:31;11.20;99.90
17370;DHT22;8802;52.402;4.920;2023-12-20T03:56:58;11.20;99.90
17370;DHT22;8802;52.402;4.920;2023-12-20T03:59:25;11.20;99.90
17370;DHT22;8802;52.402;4.920;2023-12-20T04:01:51;11.20;99.90
17370;DHT22;8802;52.402;4.920;2023-12-20T04:04:19;11.10;99.90
17370;DHT22;8802;52.402;4.920;2023-12-20T04:06:47;11.20;99.90
17370;DHT22;8802;52.402;4.920;2023-12-20T04:09:14;11.20;99.90
17370;DHT22;8802;52.402;4.920;2023-12-20T04:11:41;11.20;99.90
17370;DHT22;8802;52.402;4.920;2023-12-20T04:14:07;11.20;99.90
17370;DHT22;8802;52.402;4.920;2023-12-20T04:16:35;11.20;99.90
17370;DHT22;8802;52.402;4.920;2023-12-20T04:19:02;11.20;99.90
17370;DHT22;8802;52.402;4.920;2023-12-20T04:21:29;11.20;99.90
17370;DHT22;8802;52.402;4.920;2023-12-20T04:23:57;11.30;99.90
17370;DHT22;8802;52.402;4.920;2023-12-20T04:26:24;11.30;99.90
17370;DHT22;8802;52.402;4.920;2023-12-20T04:28:51;11.20;99.90
17370;DHT22;8802;52.402;4.920;2023-12-20T04:31:18;11.30;99.90
17370;DHT22;8802;52.402;4.920;2023-12-20T04:33:44;11.30;99.90
17370;DHT22;8802;52.402;4.920;2023-12-20T04:36:11;11.30;99.90
17370;DHT22;8802;52.402;4.920;2023-12-20T04:38:38;11.30;99.90
17370;DHT22;8802;52.402;4.920;2023-12-20T04:41:06;11.30;99.90
17370;DHT22;8802;52.402;4.920;2023-12-20T04:43:33;11.30;99.90
17370;DHT22;8802;52.402;4.920;2023-12-20T04:46:00;11.30;99.90
17370;DHT22;8802;52.402;4.920;2023-12-20T04:48:27;11.30;99.90
17370;DHT22;8802;52.402;4.920;2023-12-20T04:50:54;11.30;99.90
17370;DHT22;8802;52.402;4.920;2023-12-20T04:53:21;11.60;99.90
17370;DHT22;8802;52.402;4.920;2023-12-20T04:55:48;11.30;99.90
17370;DHT22;8802;52.402;4.920;2023-12-20T04:58:16;11.30;99.90
17370;DHT22;8802;52.402;4.920;2023-12-20T05:00:43;11.30;99.90
17370;DHT22;8802;52.402;4.920;2023-12-20T05:03:10;11.50;99.90
17370;DHT22;8802;52.402;4.920;2023-12-20T05:05:37;11.30;99.90
17370;DHT22;8802;52.402;4.920;2023-12-20T05:08:04;11.40;99.90
17370;DHT22;8802;52.402;4.920;2023-12-20T05:10:31;11.40;99.90
17370;DHT22;8802;52.402;4.920;2023-12-20T05:12:58;11.40;99.90
17370;DHT22;8802;52.402;4.920;2023-12-20T05:15:27;11.40;99.90
17370;DHT22;8802;52.402;4.920;2023-12-20T05:17:54;11.40;99.90
17370;DHT22;8802;52.402;4.920;2023-12-20T05:20:20;11.40;99.90
17370;DHT22;8802;52.402;4.920;2023-12-20T05:22:48;11.40;99.90
17370;DHT22;8802;52.402;4.920;2023-12-20T05:25:15;11.40;99.90
17370;DHT22;8802;52.402;4.920;2023-12-20T05:27:42;11.40;99.90
17370;DHT22;8802;52.402;4.920;2023-12-20T05:30:10;11.40;99.90
17370;DHT22;8802;52.402;4.920;2023-12-20T05:32:38;11.40;99.90
17370;DHT22;8802;52.402;4.920;2023-12-20T05:35:05;11.50;99.90
17370;DHT22;8802;52.402;4.920;2023-12-20T05:37:32;11.40;99.90
17370;DHT22;8802;52.402;4.920;2023-12-20T05:39:59;11.40;99.90
17370;DHT22;8802;52.402;4.920;2023-12-20T05:42:26;11.50;99.90
17370;DHT22;8802;52.402;4.920;2023-12-20T05:44:53;11.50;99.90
17370;DHT22;8802;52.402;4.920;2023-12-20T05:47:20;11.50;99.90
17370;DHT22;8802;52.402;4.920;2023-12-20T05:49:48;11.50;99.90
17370;DHT22;8802;52.402;4.920;2023-12-20T05:52:15;11.50;99.90
17370;DHT22;8802;52.402;4.920;2023-12-20T05:54:42;11.50;99.90
17370;DHT22;8802;52.402;4.920;2023-12-20T05:57:09;11.70;99.90
17370;DHT22;8802;52.402;4.920;2023-12-20T05:59:36;11.50;99.90
17370;DHT22;8802;52.402;4.920;2023-12-20T06:02:03;11.50;99.90
17370;DHT22;8802;52.402;4.920;2023-12-20T06:04:30;11.50;99.90
17370;DHT22;8802;52.402;4.920;2023-12-20T06:06:59;11.60;99.90
17370;DHT22;8802;52.402;4.920;2023-12-20T06:09:27;11.60;99.90
17370;DHT22;8802;52.402;4.920;2023-12-20T06:11:54;11.50;99.90
17370;DHT22;8802;52.402;4.920;2023-12-20T06:14:20;11.60;99.90
17370;DHT22;8802;52.402;4.920;2023-12-20T06:16:47;11.60;99.90
17370;DHT22;8802;52.402;4.920;2023-12-20T06:19:14;11.60;99.90
17370;DHT22;8802;52.402;4.920;2023-12-20T06:21:41;11.60;99.90
17370;DHT22;8802;52.402;4.920;2023-12-20T06:24:09;11.60;99.90
17370;DHT22;8802;52.402;4.920;2023-12-20T06:26:36;11.60;99.90
17370;DHT22;8802;52.402;4.920;2023-12-20T06:29:03;11.60;99.90
17370;DHT22;8802;52.402;4.920;2023-12-20T06:31:30;11.60;99.90
17370;DHT22;8802;52.402;4.920;2023-12-20T06:33:58;11.60;99.90
17370;DHT22;8802;52.402;4.920;2023-12-20T06:36:25;11.60;99.90
17370;DHT22;8802;52.402;4.920;2023-12-20T06:38:52;11.60;99.90
17370;DHT22;8802;52.402;4.920;2023-12-20T06:41:20;11.50;99.90
17370;DHT22;8802;52.402;4.920;2023-12-20T06:43:49;11.60;99.90
17370;DHT22;8802;52.402;4.920;2023-12-20T06:46:17;11.60;99.90
17370;DHT22;8802;52.402;4.920;2023-12-20T06:48:44;11.60;99.90
17370;DHT22;8802;52.402;4.920;2023-12-20T06:51:15;11.60;99.90
17370;DHT22;8802;52.402;4.920;2023-12-20T06:53:42;11.70;99.90
17370;DHT22;8802;52.402;4.920;2023-12-20T06:56:11;11.70;99.90
17370;DHT22;8802;52.402;4.920;2023-12-20T06:58:39;11.70;99.90
17370;DHT22;8802;52.402;4.920;2023-12-20T07:01:11;11.70;99.90
17370;DHT22;8802;52.402;4.920;2023-12-20T07:03:37;11.70;99.90
17370;DHT22;8802;52.402;4.920;2023-12-20T07:06:04;11.70;99.90
17370;DHT22;8802;52.402;4.920;2023-12-20T07:08:31;11.70;99.90
17370;DHT22;8802;52.402;4.920;2023-12-20T07:10:58;11.70;99.90
17370;DHT22;8802;52.402;4.920;2023-12-20T07:13:25;11.70;99.90
17370;DHT22;8802;52.402;4.920;2023-12-20T07:15:53;11.80;99.90
17370;DHT22;8802;52.402;4.920;2023-12-20T07:18:21;11.70;99.90
17370;DHT22;8802;52.402;4.920;2023-12-20T07:20:48;11.70;99.90
17370;DHT22;8802;52.402;4.920;2023-12-20T07:23:15;11.80;99.90
17370;DHT22;8802;52.402;4.920;2023-12-20T07:25:42;11.80;99.90
17370;DHT22;8802;52.402;4.920;2023-12-20T07:28:09;11.80;99.90
17370;DHT22;8802;52.402;4.920;2023-12-20T07:30:36;11.80;99.90
17370;DHT22;8802;52.402;4.920;2023-12-20T07:33:04;11.80;99.90
17370;DHT22;8802;52.402;4.920;2023-12-20T07:35:34;11.80;99.90
17370;DHT22;8802;52.402;4.920;2023-12-20T07:38:01;11.80;99.90
17370;DHT22;8802;52.402;4.920;2023-12-20T07:40:28;11.80;99.90
17370;DHT22;8802;52.402;4.920;2023-12-20T07:42:54;11.80;99.90
17370;DHT22;8802;52.402;4.920;2023-12-20T07:45:21;11.80;99.90
17370;DHT22;8802;52.402;4.920;2023-12-20T07:47:48;11.80;99.90
17370;DHT22;8802;52.402;4.920;2023-12-20T07:50:17;11.80;99.90
17370;DHT22;8802;52.402;4.920;2023-12-20T07:52:44;11.80;99.90
17370;DHT22;8802;52.402;4.920;2023-12-20T07:55:11;11.80;99.90
17370;DHT22;8802;52.402;4.920;2023-12-20T07:57:38;11.80;99.90
17370;DHT22;8802;52.402;4.920;2023-12-20T08:00:06;11.70;99.90
17370;DHT22;8802;52.402;4.920;2023-12-20T08:02:32;11.80;99.90
17370;DHT22;8802;52.402;4.920;2023-12-20T08:04:59;11.90;99.90
17370;DHT22;8802;52.402;4.920;2023-12-20T08:07:28;11.90;99.90
17370;DHT22;8802;52.402;4.920;2023-12-20T08:09:54;11.90;99.90
17370;DHT22;8802;52.402;4.920;2023-12-20T08:12:22;11.90;99.90
17370;DHT22;8802;52.402;4.920;2023-12-20T08:14:49;11.90;99.90
17370;DHT22;8802;52.402;4.920;2023-12-20T08:17:16;11.90;99.90
17370;DHT22;8802;52.402;4.920;2023-12-20T08:19:44;11.80;99.90
17370;DHT22;8802;52.402;4.920;2023-12-20T08:22:11;12.00;99.90
17370;DHT22;8802;52.402;4.920;2023-12-20T08:24:39;12.00;99.90
17370;DHT22;8802;52.402;4.920;2023-12-20T08:27:06;11.90;99.90
17370;DHT22;8802;52.402;4.920;2023-12-20T08:29:34;12.00;99.90
17370;DHT22;8802;52.402;4.920;2023-12-20T08:32:02;12.00;99.90
17370;DHT22;8802;52.402;4.920;2023-12-20T08:34:29;12.00;99.90
17370;DHT22;8802;52.402;4.920;2023-12-20T08:36:56;12.00;99.90
17370;DHT22;8802;52.402;4.920;2023-12-20T08:39:23;12.00;99.90
17370;DHT22;8802;52.402;4.920;2023-12-20T08:41:51;12.00;99.90
17370;DHT22;8802;52.402;4.920;2023-12-20T08:44:18;12.00;99.90
17370;DHT22;8802;52.402;4.920;2023-12-20T08:46:45;12.10;99.90
17370;DHT22;8802;52.402;4.920;2023-12-20T08:49:12;12.10;99.90
17370;DHT22;8802;52.402;4.920;2023-12-20T08:51:38;12.10;99.90
17370;DHT22;8802;52.402;4.920;2023-12-20T08:54:06;12.10;99.90
17370;DHT22;8802;52.402;4.920;2023-12-20T08:56:34;12.10;99.90
17370;DHT22;8802;52.402;4.920;2023-12-20T08:59:02;12.10;99.90
17370;DHT22;8802;52.402;4.920;2023-12-20T09:01:29;12.10;99.90
17370;DHT22;8802;52.402;4.920;2023-12-20T09:03:56;12.10;99.90
17370;DHT22;8802;52.402;4.920;2023-12-20T09:06:23;12.20;99.90
17370;DHT22;8802;52.402;4.920;2023-12-20T09:08:50;12.10;99.90
17370;DHT22;8802;52.402;4.920;2023-12-20T09:11:17;12.10;99.90
17370;DHT22;8802;52.402;4.920;2023-12-20T09:13:44;12.10;99.90
17370;DHT22;8802;52.402;4.920;2023-12-20T09:16:12;12.10;99.90
17370;DHT22;8802;52.402;4.920;2023-12-20T09:18:41;12.10;99.90
17370;DHT22;8802;52.402;4.920;2023-12-20T09:21:08;12.10;99.90
17370;DHT22;8802;52.402;4.920;2023-12-20T09:23:35;12.10;99.90
17370;DHT22;8802;52.402;4.920;2023-12-20T09:26:02;12.10;99.90
17370;DHT22;8802;52.402;4.920;2023-12-20T09:28:29;12.10;99.90
17370;DHT22;8802;52.402;4.920;2023-12-20T09:30:58;12.10;99.90
17370;DHT22;8802;52.402;4.920;2023-12-20T09:33:26;12.10;99.90
17370;DHT22;8802;52.402;4.920;2023-12-20T09:35:53;12.20;99.90
17370;DHT22;8802;52.402;4.920;2023-12-20T09:38:20;12.20;99.90
17370;DHT22;8802;52.402;4.920;2023-12-20T09:40:47;12.20;99.90
17370;DHT22;8802;52.402;4.920;2023-12-20T09:43:15;12.20;99.90
17370;DHT22;8802;52.402;4.920;2023-12-20T09:45:42;12.20;99.90
17370;DHT22;8802;52.402;4.920;2023-12-20T09:48:11;12.20;99.90
17370;DHT22;8802;52.402;4.920;2023-12-20T09:50:41;12.20;99.90
17370;DHT22;8802;52.402;4.920;2023-12-20T09:53:10;12.20;99.90
17370;DHT22;8802;52.402;4.920;2023-12-20T09:55:38;12.20;99.90
17370;DHT22;8802;52.402;4.920;2023-12-20T09:58:06;12.20;99.90
17370;DHT22;8802;52.402;4.920;2023-12-20T10:00:34;12.20;99.90
17370;DHT22;8802;52.402;4.920;2023-12-20T10:03:01;12.20;99.90
17370;DHT22;8802;52.402;4.920;2023-12-20T10:05:30;12.20;99.90
17370;DHT22;8802;52.402;4.920;2023-12-20T10:07:59;12.30;99.90
17370;DHT22;8802;52.402;4.920;2023-12-20T10:10:27;12.50;99.90
17370;DHT22;8802;52.402;4.920;2023-12-20T10:13:04;12.30;99.90
17370;DHT22;8802;52.402;4.920;2023-12-20T10:15:32;12.30;99.90
17370;DHT22;8802;52.402;4.920;2023-12-20T10:17:59;12.30;99.90
17370;DHT22;8802;52.402;4.920;2023-12-20T10:20:27;12.40;99.90
17370;DHT22;8802;52.402;4.920;2023-12-20T10:22:55;12.50;99.90
17370;DHT22;8802;52.402;4.920;2023-12-20T10:25:24;12.50;99.90
17370;DHT22;8802;52.402;4.920;2023-12-20T10:28:08;12.70;99.90
17370;DHT22;8802;52.402;4.920;2023-12-20T10:30:36;12.60;99.90
17370;DHT22;8802;52.402;4.920;2023-12-20T10:33:03;12.70;99.90
17370;DHT22;8802;52.402;4.920;2023-12-20T10:35:31;12.70;99.90
17370;DHT22;8802;52.402;4.920;2023-12-20T10:38:03;12.80;99.90
17370;DHT22;8802;52.402;4.920;2023-12-20T10:40:34;12.80;99.90
17370;DHT22;8802;52.402;4.920;2023-12-20T10:43:03;12.90;99.90
17370;DHT22;8802;52.402;4.920;2023-12-20T10:45:30;12.90;99.90
17370;DHT22;8802;52.402;4.920;2023-12-20T10:47:58;13.00;99.90
17370;DHT22;8802;52.402;4.920;2023-12-20T10:50:27;12.90;99.90
17370;DHT22;8802;52.402;4.920;2023-12-20T10:52:54;13.00;99.90
17370;DHT22;8802;52.402;4.920;2023-12-20T10:55:22;13.00;99.90
17370;DHT22;8802;52.402;4.920;2023-12-20T10:57:51;13.00;99.90
17370;DHT22;8802;52.402;4.920;2023-12-20T11:00:19;13.10;99.90
17370;DHT22;8802;52.402;4.920;2023-12-20T11:02:49;13.10;99.90
17370;DHT22;8802;52.402;4.920;2023-12-20T11:05:26;13.10;99.90
17370;DHT22;8802;52.402;4.920;2023-12-20T11:08:00;13.10;99.90
17370;DHT22;8802;52.402;4.920;2023-12-20T11:10:33;13.10;99.90
17370;DHT22;8802;52.402;4.920;2023-12-20T11:13:10;13.10;99.90
17370;DHT22;8802;52.402;4.920;2023-12-20T11:15:38;13.10;99.90
17370;DHT22;8802;52.402;4.920;2023-12-20T11:18:05;13.10;99.90
17370;DHT22;8802;52.402;4.920;2023-12-20T11:20:36;13.10;99.90
17370;DHT22;8802;52.402;4.920;2023-12-20T11:23:04;13.20;99.90
17370;DHT22;8802;52.402;4.920;2023-12-20T11:25:48;13.20;99.90
17370;DHT22;8802;52.402;4.920;2023-12-20T11:28:20;13.20;99.90
17370;DHT22;8802;52.402;4.920;2023-12-20T11:30:49;13.20;99.90
17370;DHT22;8802;52.402;4.920;2023-12-20T11:33:17;13.20;99.90
17370;DHT22;8802;52.402;4.920;2023-12-20T11:35:47;13.20;99.90
17370;DHT22;8802;52.402;4.920;2023-12-20T11:38:14;13.30;99.90
17370;DHT22;8802;52.402;4.920;2023-12-20T11:40:42;13.20;99.90
17370;DHT22;8802;52.402;4.920;2023-12-20T11:43:09;13.20;99.90
17370;DHT22;8802;52.402;4.920;2023-12-20T11:45:38;13.20;99.90
17370;DHT22;8802;52.402;4.920;2023-12-20T11:48:15;13.20;99.90
17370;DHT22;8802;52.402;4.920;2023-12-20T11:50:42;13.30;99.90
17370;DHT22;8802;52.402;4.920;2023-12-20T11:53:10;13.30;99.90
17370;DHT22;8802;52.402;4.920;2023-12-20T11:55:37;13.30;99.90
17370;DHT22;8802;52.402;4.920;2023-12-20T11:58:04;13.30;99.90
17370;DHT22;8802;52.402;4.920;2023-12-20T12:00:31;13.30;99.90
17370;DHT22;8802;52.402;4.920;2023-12-20T12:02:59;13.30;99.90
17370;DHT22;8802;52.402;4.920;2023-12-20T12:05:30;13.30;99.90
17370;DHT22;8802;52.402;4.920;2023-12-20T12:07:57;13.20;99.90
17370;DHT22;8802;52.402;4.920;2023-12-20T12:10:24;13.30;99.90
17370;DHT22;8802;52.402;4.920;2023-12-20T12:12:50;13.30;99.90
17370;DHT22;8802;52.402;4.920;2023-12-20T12:15:17;13.30;99.90
17370;DHT22;8802;52.402;4.920;2023-12-20T12:17:45;13.30;99.90
17370;DHT22;8802;52.402;4.920;2023-12-20T12:20:20;13.30;99.90
17370;DHT22;8802;52.402;4.920;2023-12-20T12:22:57;13.30;99.90
17370;DHT22;8802;52.402;4.920;2023-12-20T12:25:24;13.30;99.90
17370;DHT22;8802;52.402;4.920;2023-12-20T12:27:51;13.30;99.90
17370;DHT22;8802;52.402;4.920;2023-12-20T12:30:18;13.30;99.90
17370;DHT22;8802;52.402;4.920;2023-12-20T12:32:45;13.30;99.90
17370;DHT22;8802;52.402;4.920;2023-12-20T12:35:12;13.30;99.90
17370;DHT22;8802;52.402;4.920;2023-12-20T12:37:40;13.30;99.90
17370;DHT22;8802;52.402;4.920;2023-12-20T12:40:10;13.30;99.90
17370;DHT22;8802;52.402;4.920;2023-12-20T12:42:37;13.30;99.90
17370;DHT22;8802;52.402;4.920;2023-12-20T12:45:05;13.40;99.90
17370;DHT22;8802;52.402;4.920;2023-12-20T12:47:32;13.40;99.90
17370;DHT22;8802;52.402;4.920;2023-12-20T12:49:59;13.40;99.90
17370;DHT22;8802;52.402;4.920;2023-12-20T12:52:26;13.40;99.90
17370;DHT22;8802;52.402;4.920;2023-12-20T12:54:54;13.40;99.90
17370;DHT22;8802;52.402;4.920;2023-12-20T12:57:21;13.40;99.90
17370;DHT22;8802;52.402;4.920;2023-12-20T12:59:48;13.40;99.90
17370;DHT22;8802;52.402;4.920;2023-12-20T13:02:15;13.40;99.90
17370;DHT22;8802;52.402;4.920;2023-12-20T13:04:42;13.40;99.90
17370;DHT22;8802;52.402;4.920;2023-12-20T13:07:10;13.40;99.90
17370;DHT22;8802;52.402;4.920;2023-12-20T13:09:37;13.30;99.90
17370;DHT22;8802;52.402;4.920;2023-12-20T13:12:06;13.40;99.90
17370;DHT22;8802;52.402;4.920;2023-12-20T13:14:34;13.40;99.90
17370;DHT22;8802;52.402;4.920;2023-12-20T13:17:02;13.40;99.90
17370;DHT22;8802;52.402;4.920;2023-12-20T13:19:30;13.40;99.90
17370;DHT22;8802;52.402;4.920;2023-12-20T13:21:57;13.40;99.90
17370;DHT22;8802;52.402;4.920;2023-12-20T13:24:24;13.40;99.90
17370;DHT22;8802;52.402;4.920;2023-12-20T13:26:51;13.30;99.90
17370;DHT22;8802;52.402;4.920;2023-12-20T13:29:19;13.40;99.90
17370;DHT22;8802;52.402;4.920;2023-12-20T13:31:46;13.40;99.90
17370;DHT22;8802;52.402;4.920;2023-12-20T13:34:13;13.30;99.90
17370;DHT22;8802;52.402;4.920;2023-12-20T13:36:39;13.30;99.90
17370;DHT22;8802;52.402;4.920;2023-12-20T13:39:06;13.30;99.90
17370;DHT22;8802;52.402;4.920;2023-12-20T13:41:33;13.30;99.90
17370;DHT22;8802;52.402;4.920;2023-12-20T13:44:00;13.30;99.90
17370;DHT22;8802;52.402;4.920;2023-12-20T13:46:30;13.40;99.90
17370;DHT22;8802;52.402;4.920;2023-12-20T13:48:57;13.30;99.90
17370;DHT22;8802;52.402;4.920;2023-12-20T13:51:24;13.40;99.90
17370;DHT22;8802;52.402;4.920;2023-12-20T13:53:50;13.40;99.90
17370;DHT22;8802;52.402;4.920;2023-12-20T13:56:20;13.40;99.90
17370;DHT22;8802;52.402;4.920;2023-12-20T13:58:50;13.40;99.90
17370;DHT22;8802;52.402;4.920;2023-12-20T14:01:17;13.40;99.90
17370;DHT22;8802;52.402;4.920;2023-12-20T14:03:46;13.40;99.90
17370;DHT22;8802;52.402;4.920;2023-12-20T14:06:13;13.40;99.90
17370;DHT22;8802;52.402;4.920;2023-12-20T14:08:41;13.40;99.90
17370;DHT22;8802;52.402;4.920;2023-12-20T14:11:08;13.40;99.90
17370;DHT22;8802;52.402;4.920;2023-12-20T14:13:35;13.30;99.90
17370;DHT22;8802;52.402;4.920;2023-12-20T14:16:02;13.40;99.90
17370;DHT22;8802;52.402;4.920;2023-12-20T14:18:29;13.40;99.90
17370;DHT22;8802;52.402;4.920;2023-12-20T14:20:59;13.30;99.90
17370;DHT22;8802;52.402;4.920;2023-12-20T14:23:26;13.30;99.90
17370;DHT22;8802;52.402;4.920;2023-12-20T14:25:53;13.30;99.90
17370;DHT22;8802;52.402;4.920;2023-12-20T14:28:21;13.30;99.90
17370;DHT22;8802;52.402;4.920;2023-12-20T14:30:48;13.30;99.90
17370;DHT22;8802;52.402;4.920;2023-12-20T14:33:15;13.30;99.90
17370;DHT22;8802;52.402;4.920;2023-12-20T14:35:42;13.30;99.90
17370;DHT22;8802;52.402;4.920;2023-12-20T14:38:11;13.30;99.90
17370;DHT22;8802;52.402;4.920;2023-12-20T14:40:40;13.30;99.90
17370;DHT22;8802;52.402;4.920;2023-12-20T14:43:07;13.30;99.90
17370;DHT22;8802;52.402;4.920;2023-12-20T14:45:34;13.30;99.90
17370;DHT22;8802;52.402;4.920;2023-12-20T14:48:00;13.30;99.90
17370;DHT22;8802;52.402;4.920;2023-12-20T14:50:27;13.30;99.90
17370;DHT22;8802;52.402;4.920;2023-12-20T14:52:54;13.30;99.90
17370;DHT22;8802;52.402;4.920;2023-12-20T14:55:23;13.30;99.90
17370;DHT22;8802;52.402;4.920;2023-12-20T14:57:52;13.30;99.90
17370;DHT22;8802;52.402;4.920;2023-12-20T15:00:19;13.20;99.90
17370;DHT22;8802;52.402;4.920;2023-12-20T15:02:46;13.20;99.90
17370;DHT22;8802;52.402;4.920;2023-12-20T15:05:13;13.20;99.90
17370;DHT22;8802;52.402;4.920;2023-12-20T15:07:41;13.30;99.90
17370;DHT22;8802;52.402;4.920;2023-12-20T15:10:08;13.20;99.90
17370;DHT22;8802;52.402;4.920;2023-12-20T15:12:37;13.20;99.90
17370;DHT22;8802;52.402;4.920;2023-12-20T15:15:05;13.20;99.90
17370;DHT22;8802;52.402;4.920;2023-12-20T15:17:33;13.20;99.90
17370;DHT22;8802;52.402;4.920;2023-12-20T15:20:01;13.20;99.90
17370;DHT22;8802;52.402;4.920;2023-12-20T15:22:28;13.20;99.90
17370;DHT22;8802;52.402;4.920;2023-12-20T15:24:56;13.20;99.90
17370;DHT22;8802;52.402;4.920;2023-12-20T15:27:23;13.20;99.90
17370;DHT22;8802;52.402;4.920;2023-12-20T15:29:51;13.10;99.90
17370;DHT22;8802;52.402;4.920;2023-12-20T15:32:18;13.20;99.90
17370;DHT22;8802;52.402;4.920;2023-12-20T15:34:46;13.10;99.90
17370;DHT22;8802;52.402;4.920;2023-12-20T15:37:12;13.10;99.90
17370;DHT22;8802;52.402;4.920;2023-12-20T15:39:41;13.10;99.90
17370;DHT22;8802;52.402;4.920;2023-12-20T15:42:08;13.10;99.90
17370;DHT22;8802;52.402;4.920;2023-12-20T15:44:35;13.00;99.90
17370;DHT22;8802;52.402;4.920;2023-12-20T15:47:03;13.10;99.90